X  CloseMetar Aviation Weather Data     YMAV Avalon

Temperature

24°C Temperature

9°C Dewpoint

39% Humidity



Wind

29 KM/H

18 MPH

 8 M/S

16 KTS



10°
Due North
Current Conditions

Clear Clear
Pressure 1016.92 (hPa) - 30.03 (in)
Visibility 6.2 (mi) - 10 (km)
Airport
Airport-code YMAV

Location Avalon 24 (km)

Metar:
YMAV 190400Z AUTO 01016KT 9999 // NCD 24/09 Q1017 RF00.0/000.0

Time: 19-09-2019 14:00